Time;durP1;ratioP1;P1;durP2;ratioP2;P2;SDS_P1;SDS_P2;PMS_P1;PMS_P2;Temp;Humidity;BMP_temperature;BMP_pressure;BME280_temperature;BME280_humidity;BME280_pressure;Samples;Min_cycle;Max_cycle;Signal;HPM_P1;HPM_P2
2023/01/28 00:01:10;;;;;;;79.00;33.20;;;;;;;3.59;87.44;100559.91;108108;1254;73720;-63
2023/01/28 00:03:38;;;;;;;76.10;31.80;;;;;;;3.70;86.33;100555.38;108120;1254;61248;-64
2023/01/28 00:06:09;;;;;;;63.40;30.10;;;;;;;3.66;85.10;100551.39;108130;1254;61411;-62
2023/01/28 00:08:37;;;;;;;72.60;30.80;;;;;;;3.74;82.26;100549.64;108108;1254;74242;-63
2023/01/28 00:11:06;;;;;;;66.10;28.70;;;;;;;3.69;72.91;100549.48;108109;1254;71475;-63
2023/01/28 00:13:35;;;;;;;63.60;26.40;;;;;;;3.91;71.60;100547.67;108104;1258;74064;-63
2023/01/28 00:16:05;;;;;;;69.10;30.30;;;;;;;4.13;69.80;100551.77;108095;1254;63110;-64
2023/01/28 00:18:33;;;;;;;68.00;30.50;;;;;;;4.06;69.54;100550.05;108182;1254;60971;-63
2023/01/28 00:21:07;;;;;;;63.50;28.90;;;;;;;4.04;69.87;100549.37;108192;1254;74400;-62
2023/01/28 00:23:36;;;;;;;71.70;29.80;;;;;;;4.06;70.11;100553.52;108166;1254;70925;-65
2023/01/28 00:26:06;;;;;;;63.30;28.40;;;;;;;3.85;70.32;100554.48;108087;1257;71920;-62
2023/01/28 00:28:34;;;;;;;60.20;27.50;;;;;;;3.88;70.31;100553.25;108151;1254;62368;-63
2023/01/28 00:31:08;;;;;;;62.00;27.50;;;;;;;3.99;70.10;100548.36;108056;1254;60043;-62
2023/01/28 00:33:36;;;;;;;64.00;27.60;;;;;;;3.75;70.75;100551.36;108144;1254;73032;-63
2023/01/28 00:36:05;;;;;;;58.70;27.00;;;;;;;3.59;71.06;100550.19;108137;1253;71570;-63
2023/01/28 00:38:34;;;;;;;65.20;29.50;;;;;;;3.64;70.48;100548.79;108101;1254;71504;-64
2023/01/28 00:41:09;;;;;;;65.70;27.80;;;;;;;3.53;70.62;100550.02;108035;1254;62732;-63
2023/01/28 00:43:38;;;;;;;67.00;29.80;;;;;;;3.60;70.71;100542.02;108165;1255;60297;-64
2023/01/28 00:46:07;;;;;;;58.00;27.20;;;;;;;3.79;69.97;100536.94;108043;1254;72998;-62
2023/01/28 00:48:36;;;;;;;65.80;30.20;;;;;;;4.16;68.90;100538.20;108144;1254;70422;-63
2023/01/28 00:51:11;;;;;;;64.50;27.90;;;;;;;4.35;68.08;100541.23;108074;1254;72816;-65
2023/01/28 00:53:39;;;;;;;60.80;28.60;;;;;;;4.20;68.45;100540.63;108192;1254;63394;-62
2023/01/28 00:56:10;;;;;;;66.90;29.30;;;;;;;4.08;68.16;100541.02;108116;1254;60747;-60
2023/01/28 00:58:38;;;;;;;62.80;26.90;;;;;;;3.78;68.35;100545.80;108080;1257;73803;-63
2023/01/28 01:01:08;;;;;;;63.40;28.10;;;;;;;3.72;68.46;100546.34;108090;1254;71547;-63
2023/01/28 01:03:36;;;;;;;55.90;26.30;;;;;;;3.93;67.89;100551.84;108115;1254;74076;-63
2023/01/28 01:06:06;;;;;;;61.40;26.80;;;;;;;4.29;67.07;100547.02;108084;1254;60033;-62
2023/01/28 01:08:41;;;;;;;90.20;34.50;;;;;;;4.27;67.03;100544.59;108072;1254;60697;-61
2023/01/28 01:11:10;;;;;;;68.60;30.60;;;;;;;4.30;66.76;100540.23;108082;1254;72524;-62
2023/01/28 01:13:39;;;;;;;69.70;29.50;;;;;;;4.14;67.12;100540.65;108074;1254;70369;-62
2023/01/28 01:16:15;;;;;;;72.70;30.40;;;;;;;4.38;66.44;100536.70;108047;1254;73935;-61
2023/01/28 01:18:43;;;;;;;66.60;30.10;;;;;;;4.62;65.54;100531.01;108136;1257;61638;-60
2023/01/28 01:21:15;;;;;;;74.40;31.20;;;;;;;4.51;65.55;100528.45;108162;1254;60863;-62
2023/01/28 01:23:45;;;;;;;73.30;33.60;;;;;;;4.59;65.47;100524.94;108068;1254;73392;-63
2023/01/28 01:26:13;;;;;;;70.10;31.00;;;;;;;4.43;65.40;100524.52;108181;1254;71463;-62
2023/01/28 01:28:41;;;;;;;69.50;30.70;;;;;;;4.30;65.81;100525.98;108219;1254;73906;-63
2023/01/28 01:31:12;;;;;;;67.60;30.70;;;;;;;3.89;67.17;100530.31;108025;1254;62963;-62
2023/01/28 01:33:41;;;;;;;65.50;29.50;;;;;;;4.16;67.02;100531.59;108249;1254;61052;-61
2023/01/28 01:36:10;;;;;;;76.80;34.40;;;;;;;4.31;66.17;100535.88;108274;1254;74308;-62
2023/01/28 01:38:39;;;;;;;71.50;31.10;;;;;;;4.21;65.79;100529.84;108141;1254;68914;-62
2023/01/28 01:41:09;;;;;;;70.00;31.70;;;;;;;4.42;65.38;100533.20;108044;1254;73003;-61
2023/01/28 01:43:54;;;;;;;77.70;35.30;;;;;;;4.38;65.32;100533.76;108053;1254;59994;-64
2023/01/28 01:46:42;;;;;;;79.00;33.20;;;;;;;4.17;66.10;100528.30;107994;1254;61378;-62
2023/01/28 01:49:22;;;;;;;80.00;33.00;;;;;;;4.29;65.74;100527.89;108039;1254;73753;-62
2023/01/28 01:51:56;;;;;;;82.90;34.90;;;;;;;4.10;66.35;100526.23;108134;1254;70277;-63
2023/01/28 01:54:24;;;;;;;70.60;30.80;;;;;;;3.95;66.83;100520.55;108129;1254;70547;-63
2023/01/28 01:56:52;;;;;;;78.00;32.10;;;;;;;4.02;67.21;100522.45;107974;1254;61332;-64
2023/01/28 01:59:23;;;;;;;74.40;30.50;;;;;;;4.16;66.99;100518.73;108067;1254;59099;-62
2023/01/28 02:01:51;;;;;;;69.70;29.90;;;;;;;4.31;66.53;100516.23;108069;1253;74280;-63
2023/01/28 02:04:25;;;;;;;78.10;32.00;;;;;;;4.28;66.48;100509.81;108093;1254;69357;-59
2023/01/28 05:54:34;;;;;;;78.10;35.70;;;;;;;-0.26;100.00;100559.80;105674;1282;613578;-64
2023/01/28 05:57:03;;;;;;;80.00;35.60;;;;;;;1.25;100.00;100559.36;107246;1263;122799;-66
2023/01/28 05:59:31;;;;;;;78.80;33.70;;;;;;;1.48;100.00;100558.65;107332;1263;61599;-65
2023/01/28 06:02:03;;;;;;;78.10;32.30;;;;;;;1.52;100.00;100557.83;107334;1263;72384;-65
2023/01/28 06:04:32;;;;;;;72.90;29.70;;;;;;;1.72;100.00;100562.11;107308;1263;71278;-65
2023/01/28 06:07:01;;;;;;;74.80;29.60;;;;;;;1.86;100.00;100561.67;107300;1264;72506;-65
2023/01/28 06:09:31;;;;;;;84.60;33.30;;;;;;;1.83;100.00;100559.06;107341;1263;63379;-65
2023/01/28 06:11:59;;;;;;;89.70;35.90;;;;;;;2.10;100.00;100556.77;107483;1263;59685;-65
2023/01/28 06:14:29;;;;;;;77.30;30.70;;;;;;;2.20;100.00;100556.27;107296;1266;72517;-66
2023/01/28 06:17:11;;;;;;;69.20;27.50;;;;;;;2.25;100.00;100556.12;107315;1263;71576;-65
2023/01/28 06:20:04;;;;;;;78.60;31.60;;;;;;;2.19;100.00;100554.54;107311;1263;72376;-66
2023/01/28 06:22:36;;;;;;;76.30;31.40;;;;;;;2.29;100.00;100550.07;107250;1270;62632;-65
2023/01/28 06:25:05;;;;;;;80.00;31.50;;;;;;;2.38;100.00;100554.61;107291;1264;60576;-65
2023/01/28 06:27:39;;;;;;;80.80;32.80;;;;;;;2.35;100.00;100553.91;107334;1270;72241;-65
2023/01/28 06:30:08;;;;;;;88.50;34.40;;;;;;;2.64;100.00;100559.36;107396;1264;71555;-65
2023/01/28 06:32:36;;;;;;;80.80;33.20;;;;;;;2.64;99.56;100561.79;107397;1263;73208;-64
2023/01/28 06:35:06;;;;;;;80.40;33.20;;;;;;;2.52;91.87;100560.54;107440;1263;63214;-64
2023/01/28 06:37:34;;;;;;;78.90;31.50;;;;;;;2.56;89.18;100563.85;107416;1268;61592;-65
2023/01/28 06:40:02;;;;;;;69.50;29.00;;;;;;;2.55;87.59;100564.89;107324;1267;72979;-65
2023/01/28 06:42:31;;;;;;;77.00;29.90;;;;;;;2.19;88.11;100568.75;107348;1264;71431;-65
2023/01/28 06:45:00;;;;;;;73.10;31.60;;;;;;;2.07;88.98;100571.29;107378;1267;73699;-65
2023/01/28 06:47:28;;;;;;;68.00;27.30;;;;;;;1.86;89.96;100572.23;107358;1266;62001;-66
2023/01/28 06:49:56;;;;;;;76.30;31.50;;;;;;;2.01;89.64;100573.69;107321;1266;61384;-66
2023/01/28 06:52:24;;;;;;;80.30;32.00;;;;;;;2.26;84.61;100573.79;107365;1269;74254;-66
2023/01/28 06:54:52;;;;;;;78.30;30.90;;;;;;;2.43;74.71;100578.02;107177;1267;71334;-65
2023/01/28 06:57:20;;;;;;;83.90;33.10;;;;;;;2.26;73.42;100571.73;107313;1266;73984;-65
2023/01/28 06:59:48;;;;;;;72.70;30.40;;;;;;;2.29;72.91;100565.84;107247;1267;61389;-65
2023/01/28 07:02:17;;;;;;;72.10;30.20;;;;;;;2.40;72.32;100567.26;107357;1267;61418;-65
2023/01/28 07:04:45;;;;;;;89.60;35.10;;;;;;;2.53;71.91;100569.03;107283;1267;73775;-65
2023/01/28 07:07:13;;;;;;;83.00;35.50;;;;;;;2.40;72.39;100566.92;107748;1257;71215;-65
2023/01/28 07:09:41;;;;;;;80.10;32.00;;;;;;;2.20;73.11;100565.97;107790;1258;73145;-65
2023/01/28 07:12:09;;;;;;;80.60;31.70;;;;;;;2.24;72.73;100571.38;107892;1257;61915;-65
2023/01/28 07:14:38;;;;;;;84.80;33.10;;;;;;;2.38;72.27;100577.65;107802;1257;61388;-65
2023/01/28 07:17:08;;;;;;;86.80;36.30;;;;;;;2.60;72.10;100577.20;107807;1257;73443;-66
2023/01/28 07:19:36;;;;;;;83.30;33.70;;;;;;;2.79;71.39;100577.60;107806;1257;70153;-65
2023/01/28 07:22:04;;;;;;;72.90;31.10;;;;;;;2.74;71.34;100574.11;107862;1257;73558;-66
2023/01/28 07:24:33;;;;;;;78.40;31.30;;;;;;;2.84;70.84;100577.43;107809;1257;63192;-65
2023/01/28 07:27:03;;;;;;;103.50;39.10;;;;;;;2.61;70.94;100574.77;107745;1257;60709;-66
2023/01/28 07:29:33;;;;;;;98.00;37.10;;;;;;;2.60;70.37;100573.22;107767;1257;74025;-65
2023/01/28 07:32:01;;;;;;;91.60;37.70;;;;;;;2.32;70.97;100570.70;107927;1257;71264;-66
2023/01/28 07:34:29;;;;;;;83.90;36.00;;;;;;;2.34;70.90;100567.42;107712;1257;72947;-65
2023/01/28 07:36:57;;;;;;;94.40;38.10;;;;;;;2.39;71.00;100561.37;107741;1262;61678;-65
2023/01/28 07:39:25;;;;;;;81.20;33.60;;;;;;;2.67;70.27;100553.81;107683;1257;59640;-65
2023/01/28 07:41:53;;;;;;;94.90;40.90;;;;;;;3.11;69.18;100554.39;107715;1257;74001;-65
2023/01/28 07:44:33;;;;;;;85.60;35.20;;;;;;;3.04;68.83;100548.66;107746;1257;71395;-66
2023/01/28 07:47:04;;;;;;;75.40;33.00;;;;;;;3.02;68.47;100546.41;107713;1257;73179;-65
2023/01/28 07:49:33;;;;;;;76.80;32.00;;;;;;;2.95;69.19;100551.44;107762;1257;63144;-65
2023/01/28 07:52:06;;;;;;;80.50;34.10;;;;;;;3.25;68.61;100556.98;107811;1257;59912;-65
2023/01/28 07:54:35;;;;;;;68.50;29.60;;;;;;;3.16;68.60;100563.76;107682;1260;72772;-65
2023/01/28 07:57:08;;;;;;;76.80;30.50;;;;;;;3.24;68.57;100568.61;107614;1260;71675;-65
2023/01/28 07:59:36;;;;;;;86.20;35.10;;;;;;;3.05;68.27;100575.71;107682;1259;73745;-65
2023/01/28 08:02:05;;;;;;;64.90;30.60;;;;;;;3.02;68.81;100576.59;107782;1260;63245;-65
2023/01/28 08:04:33;;;;;;;89.10;36.40;;;;;;;3.20;68.79;100581.46;107717;1260;61528;-65
2023/01/28 08:07:02;;;;;;;79.80;34.60;;;;;;;3.71;66.61;100583.33;107649;1260;73292;-65
2023/01/28 08:09:33;;;;;;;91.70;35.70;;;;;;;3.78;65.26;100581.40;107567;1260;70185;-65
2023/01/28 08:12:01;;;;;;;95.90;43.20;;;;;;;3.24;65.82;100587.02;107588;1262;74639;-65
2023/01/28 08:14:30;;;;;;;88.10;39.00;;;;;;;3.44;65.96;100579.20;107647;1260;63263;-66
2023/01/28 08:16:58;;;;;;;78.80;32.70;;;;;;;3.52;66.04;100579.18;107702;1260;60994;-65
2023/01/28 08:19:26;;;;;;;73.00;32.80;;;;;;;3.70;65.38;100578.30;107622;1263;74233;-66
2023/01/28 08:21:54;;;;;;;82.80;37.70;;;;;;;3.43;64.95;100579.02;107635;1260;69797;-66
2023/01/28 08:24:22;;;;;;;79.10;33.70;;;;;;;3.60;64.59;100579.01;107601;1260;73910;-66
2023/01/28 08:26:50;;;;;;;98.30;46.00;;;;;;;3.46;64.82;100576.08;107549;1259;62200;-66
2023/01/28 08:29:19;;;;;;;313.40;108.10;;;;;;;3.49;64.73;100579.36;107753;1259;61956;-66
2023/01/28 08:31:47;;;;;;;116.50;45.80;;;;;;;3.56;64.88;100577.10;107636;1260;73972;-66
2023/01/28 08:34:15;;;;;;;83.50;36.90;;;;;;;3.77;64.30;100577.42;107644;1259;71420;-65
2023/01/28 08:36:44;;;;;;;77.50;33.40;;;;;;;3.69;64.94;100573.43;107751;1260;73923;-66
2023/01/28 08:39:12;;;;;;;92.40;39.30;;;;;;;3.92;64.51;100574.09;107739;1259;63540;-65
2023/01/28 08:41:40;;;;;;;81.80;34.40;;;;;;;3.99;63.79;100571.45;107701;1260;61585;-65
2023/01/28 08:44:09;;;;;;;84.40;37.20;;;;;;;3.70;64.86;100567.02;107685;1260;73503;-65
2023/01/28 08:46:37;;;;;;;78.00;33.90;;;;;;;4.01;64.63;100563.45;107758;1260;70502;-66
2023/01/28 08:49:05;;;;;;;89.80;36.40;;;;;;;4.29;64.19;100561.61;107688;1260;72950;-65
2023/01/28 08:51:35;;;;;;;90.90;35.60;;;;;;;4.45;63.45;100558.39;107682;1259;62280;-65
2023/01/28 08:54:03;;;;;;;71.90;31.00;;;;;;;4.60;63.01;100552.77;107920;1256;61444;-66
2023/01/28 08:56:31;;;;;;;74.60;32.00;;;;;;;4.84;61.29;100551.21;107986;1256;74385;-66
2023/01/28 08:59:00;;;;;;;61.50;27.60;;;;;;;4.79;60.76;100546.55;108012;1257;72023;-65
2023/01/28 09:01:28;;;;;;;70.10;29.90;;;;;;;5.14;60.21;100542.48;108077;1257;73898;-65
2023/01/28 09:03:56;;;;;;;72.40;30.80;;;;;;;4.93;60.85;100540.38;107902;1257;61240;-65
2023/01/28 09:06:25;;;;;;;67.80;30.70;;;;;;;5.25;59.84;100531.41;107791;1257;61510;-65
2023/01/28 09:08:58;;;;;;;64.20;30.10;;;;;;;5.41;59.93;100521.69;107776;1257;74089;-65
2023/01/28 09:11:27;;;;;;;57.60;27.70;;;;;;;5.42;60.05;100517.67;107817;1257;70088;-66
2023/01/28 09:13:58;;;;;;;72.50;30.40;;;;;;;5.61;59.11;100520.45;107872;1257;73865;-66
2023/01/28 09:16:26;;;;;;;68.50;29.60;;;;;;;5.60;58.08;100523.23;107812;1257;62899;-65
2023/01/28 09:18:55;;;;;;;62.20;27.10;;;;;;;5.47;58.44;100519.20;107790;1257;59569;-65
2023/01/28 09:21:23;;;;;;;60.30;27.00;;;;;;;5.29;57.88;100517.63;107771;1258;73927;-66
2023/01/28 09:23:54;;;;;;;59.80;25.40;;;;;;;5.40;57.83;100514.73;107740;1258;69370;-66
2023/01/28 09:26:22;;;;;;;58.00;25.20;;;;;;;5.58;57.93;100511.08;107733;1257;73960;-66
2023/01/28 09:28:50;;;;;;;94.70;35.20;;;;;;;5.54;57.45;100506.75;107755;1257;61409;-65
2023/01/28 09:31:19;;;;;;;90.70;35.40;;;;;;;5.30;57.13;100507.69;107737;1257;60187;-65
2023/01/28 09:33:53;;;;;;;67.90;30.10;;;;;;;5.33;57.74;100501.58;107928;1258;73260;-65
2023/01/28 09:36:21;;;;;;;60.10;27.20;;;;;;;5.76;57.59;100505.65;107818;1256;70974;-66
2023/01/28 09:38:51;;;;;;;60.00;26.90;;;;;;;5.90;57.45;100504.98;107809;1257;72953;-65
2023/01/28 09:41:44;;;;;;;57.00;26.00;;;;;;;6.01;56.94;100499.80;107645;1257;62130;-65
2023/01/28 09:44:42;;;;;;;62.30;27.40;;;;;;;6.16;56.63;100499.80;107812;1257;61876;-67
2023/01/28 09:47:24;;;;;;;59.20;27.40;;;;;;;5.99;54.25;100495.11;107584;1257;72919;-66
2023/01/28 09:49:53;;;;;;;54.90;25.30;;;;;;;6.18;54.53;100488.95;107749;1257;70194;-66
2023/01/28 09:52:22;;;;;;;49.60;24.30;;;;;;;6.19;55.19;100486.85;107693;1257;72772;-67
2023/01/28 09:55:02;;;;;;;48.10;23.60;;;;;;;6.32;55.92;100483.89;107803;1257;60195;-65
2023/01/28 09:57:40;;;;;;;50.70;21.10;;;;;;;6.60;54.89;100473.17;107808;1257;61153;-65
2023/01/28 12:04:19;;;;;;;34.80;19.40;;;;;;;12.76;38.24;100342.58;105671;1282;612480;-62
2023/01/28 12:06:55;;;;;;;35.00;18.20;;;;;;;13.95;35.48;100333.25;107191;1264;146571;-63
2023/01/28 12:09:34;;;;;;;24.60;13.80;;;;;;;14.13;35.43;100327.63;107314;1264;60381;-61
2023/01/28 12:12:17;;;;;;;31.40;16.90;;;;;;;14.79;35.18;100320.81;107325;1263;73588;-63
2023/01/28 12:15:05;;;;;;;32.90;16.10;;;;;;;15.12;33.15;100318.27;107371;1268;70367;-62
2023/01/28 12:17:57;;;;;;;28.80;16.80;;;;;;;15.06;33.04;100310.96;107353;1263;73981;-62
2023/01/28 12:20:32;;;;;;;33.40;17.40;;;;;;;15.14;33.11;100306.98;107390;1263;61607;-61
2023/01/28 12:23:31;;;;;;;34.60;16.90;;;;;;;15.40;32.75;100303.99;107427;1264;61163;-63
2023/01/28 12:26:35;;;;;;;30.60;15.70;;;;;;;15.65;32.53;100305.27;107311;1263;71343;-62
2023/01/28 12:29:23;;;;;;;35.40;18.60;;;;;;;15.80;31.07;100308.20;107384;1263;71264;-61
2023/01/28 12:32:06;;;;;;;35.80;18.20;;;;;;;15.20;30.74;100312.83;107365;1263;73312;-64
2023/01/28 12:34:55;;;;;;;32.50;16.90;;;;;;;14.66;32.01;100311.23;107393;1263;60595;-64
2023/01/28 12:37:33;;;;;;;30.40;16.60;;;;;;;14.93;32.33;100310.21;107410;1263;61242;-63
2023/01/28 12:40:07;;;;;;;32.40;16.40;;;;;;;15.55;32.04;100306.59;107667;1260;73281;-64
2023/01/28 12:42:55;;;;;;;29.90;16.20;;;;;;;15.67;31.19;100307.66;107616;1259;71500;-64
2023/01/28 12:45:26;;;;;;;34.60;16.90;;;;;;;14.91;30.52;100307.13;107578;1260;73891;-62
2023/01/28 12:47:56;;;;;;;31.30;16.10;;;;;;;14.29;31.53;100307.60;107634;1260;60438;-62
2023/01/28 12:50:31;;;;;;;35.80;16.50;;;;;;;14.26;32.00;100304.91;107596;1260;60570;-63
2023/01/28 12:53:11;;;;;;;36.90;16.30;;;;;;;14.47;32.08;100305.99;107555;1260;73315;-64
2023/01/28 12:55:47;;;;;;;35.30;17.10;;;;;;;14.85;32.25;100307.45;107508;1264;69787;-63
2023/01/28 12:58:17;;;;;;;31.50;15.20;;;;;;;15.08;31.90;100304.48;107444;1261;73572;-60
2023/01/28 13:00:47;;;;;;;32.80;17.00;;;;;;;15.32;31.54;100304.92;107487;1261;59214;-60
2023/01/28 13:03:24;;;;;;;35.50;17.00;;;;;;;15.73;30.83;100300.46;107499;1262;61362;-63
2023/01/28 13:06:16;;;;;;;31.40;15.80;;;;;;;15.43;30.70;100303.66;107449;1262;71974;-62
2023/01/28 13:08:43;;;;;;;36.40;17.30;;;;;;;15.33;30.48;100304.05;107468;1262;71510;-63
2023/01/28 13:11:14;;;;;;;32.10;16.10;;;;;;;15.20;30.88;100303.51;107428;1262;73667;-65
2023/01/28 13:13:41;;;;;;;33.50;16.60;;;;;;;15.17;30.48;100300.08;107504;1263;59490;-62
2023/01/28 13:16:09;;;;;;;46.70;23.00;;;;;;;15.12;30.74;100301.08;107553;1264;59603;-62
2023/01/28 13:18:38;;;;;;;33.50;16.20;;;;;;;15.33;30.70;100301.56;107557;1262;73174;-65
2023/01/28 13:21:15;;;;;;;31.40;16.40;;;;;;;15.55;29.96;100299.08;107490;1263;71674;-62
2023/01/28 13:23:46;;;;;;;28.90;15.80;;;;;;;15.04;29.84;100300.27;107381;1262;71829;-59
2023/01/28 13:26:18;;;;;;;;;;;;;;;13.97;29.99;100305.06;107462;1263;60409;-62
2023/01/28 13:28:46;;;;;;;28.70;16.00;;;;;;;12.96;30.83;100309.54;107515;1262;60930;-63
2023/01/28 13:31:18;;;;;;;33.20;14.60;;;;;;;12.86;31.92;100310.84;107503;1263;73146;-62
2023/01/28 13:34:06;;;;;;;29.10;14.50;;;;;;;13.05;31.26;100310.55;107398;1263;71320;-64
2023/01/28 13:36:39;;;;;;;32.50;15.40;;;;;;;12.62;31.24;100313.84;107457;1263;73741;-64
2023/01/28 13:39:13;;;;;;;27.30;11.80;;;;;;;12.50;30.76;100308.17;107495;1262;60628;-63
2023/01/28 13:41:41;;;;;;;25.00;12.60;;;;;;;11.94;31.04;100310.27;107758;1257;61080;-62
2023/01/28 13:44:26;;;;;;;25.20;11.90;;;;;;;11.99;31.83;100312.52;107758;1257;74289;-62
2023/01/28 13:46:58;;;;;;;26.40;11.90;;;;;;;11.70;32.14;100312.94;107740;1257;71417;-64
2023/01/28 13:49:49;;;;;;;23.50;11.30;;;;;;;11.75;31.96;100312.02;107787;1257;73846;-65
2023/01/28 13:52:27;;;;;;;36.70;14.00;;;;;;;11.85;32.39;100309.55;107664;1257;59554;-64
2023/01/28 13:54:58;;;;;;;28.30;12.40;;;;;;;12.09;32.65;100314.27;107733;1257;60314;-65
2023/01/28 13:57:30;;;;;;;25.60;12.80;;;;;;;12.24;31.94;100315.77;107758;1257;73991;-64
2023/01/28 14:00:21;;;;;;;25.90;12.90;;;;;;;12.18;32.14;100314.09;107778;1257;71244;-64
2023/01/28 14:02:57;;;;;;;25.00;12.60;;;;;;;11.76;32.32;100319.20;107864;1257;73580;-64
2023/01/28 14:06:02;;;;;;;29.30;13.30;;;;;;;11.10;32.56;100322.58;108048;1258;60606;-63
2023/01/28 14:08:51;;;;;;;30.70;13.50;;;;;;;10.94;33.14;100325.77;107980;1256;59723;-63
2023/01/28 14:11:45;;;;;;;34.30;16.40;;;;;;;10.67;33.63;100328.97;108013;1254;73962;-64
2023/01/28 14:14:37;;;;;;;41.30;18.70;;;;;;;10.46;34.12;100323.70;108001;1257;70683;-64
2023/01/28 14:17:35;;;;;;;37.80;18.30;;;;;;;10.06;34.81;100321.99;107946;1257;72671;-64
2023/01/28 14:20:02;;;;;;;37.90;18.50;;;;;;;10.26;35.00;100319.98;108049;1255;59714;-63
2023/01/28 14:22:29;;;;;;;46.60;23.90;;;;;;;10.22;34.90;100320.11;108084;1258;59467;-64
2023/01/28 14:24:58;;;;;;;42.00;21.50;;;;;;;9.97;35.08;100323.17;107876;1254;73326;-64
2023/01/28 14:27:36;;;;;;;41.10;20.30;;;;;;;9.64;36.40;100323.65;108080;1255;71274;-64
2023/01/28 14:30:26;;;;;;;39.20;18.00;;;;;;;9.66;36.01;100322.54;108014;1255;72749;-65
2023/01/28 14:32:54;;;;;;;;;;;;;;;9.41;37.00;100322.92;107872;1255;59725;-64
2023/01/28 14:35:32;;;;;;;38.30;16.00;;;;;;;8.88;37.90;100326.87;108039;1254;61137;-65
2023/01/28 14:38:00;;;;;;;28.00;11.70;;;;;;;9.35;37.26;100329.42;108033;1258;74019;-65
2023/01/28 14:40:27;;;;;;;46.60;20.30;;;;;;;9.32;38.00;100328.61;107773;1258;71295;-65
2023/01/28 14:42:54;;;;;;;62.40;19.40;;;;;;;9.05;38.17;100327.11;108009;1257;73820;-64
2023/01/28 14:45:46;;;;;;;35.20;14.40;;;;;;;8.71;39.11;100328.38;107993;1257;59538;-65
2023/01/28 14:48:26;;;;;;;43.30;17.20;;;;;;;8.54;39.96;100328.27;107988;1256;60282;-65
2023/01/28 14:51:21;;;;;;;51.30;24.10;;;;;;;8.31;39.87;100332.66;107933;1256;74004;-66
2023/01/28 14:54:02;;;;;;;36.60;15.40;;;;;;;8.33;39.89;100335.95;107948;1255;71795;-65
2023/01/28 14:57:00;;;;;;;39.10;16.90;;;;;;;8.01;40.73;100340.39;107957;1256;72318;-65
2023/01/28 14:59:48;;;;;;;28.10;12.20;;;;;;;7.98;40.24;100344.12;107939;1257;59643;-65
2023/01/28 15:02:20;;;;;;;33.50;10.80;;;;;;;7.97;39.98;100346.42;107924;1255;61330;-65
2023/01/28 15:04:48;;;;;;;22.70;10.30;;;;;;;7.63;41.69;100350.30;108013;1255;72722;-65
2023/01/28 15:07:23;;;;;;;28.30;11.30;;;;;;;7.03;42.87;100356.40;108021;1255;70570;-64
2023/01/28 15:10:03;;;;;;;24.50;10.10;;;;;;;6.83;43.00;100360.60;108012;1255;73906;-65
2023/01/28 15:12:38;;;;;;;24.60;11.40;;;;;;;6.86;43.40;100356.38;108063;1256;59627;-64
2023/01/28 15:15:17;;;;;;;26.20;11.10;;;;;;;6.90;43.24;100351.58;107844;1257;61389;-66
2023/01/28 15:17:45;;;;;;;26.80;11.60;;;;;;;6.76;43.87;100355.68;107871;1256;74510;-65
2023/01/28 15:20:18;;;;;;;42.40;18.50;;;;;;;6.80;44.00;100354.89;107922;1260;70348;-64
2023/01/28 15:22:44;;;;;;;46.10;21.50;;;;;;;6.90;43.63;100357.16;107970;1256;72822;-64
2023/01/28 15:25:21;;;;;;;45.90;17.40;;;;;;;6.93;43.37;100355.02;107833;1256;62102;-64
2023/01/28 15:27:49;;;;;;;40.40;18.90;;;;;;;7.12;43.27;100355.02;108017;1257;60117;-65
2023/01/28 15:30:24;;;;;;;34.60;16.80;;;;;;;7.17;43.29;100357.34;108005;1256;73664;-64
2023/01/28 15:33:04;;;;;;;39.10;15.60;;;;;;;6.89;43.71;100354.04;107965;1257;71571;-64
2023/01/28 15:35:32;;;;;;;40.10;20.50;;;;;;;7.08;43.50;100352.80;107888;1257;72532;-64
2023/01/28 15:37:59;;;;;;;38.00;16.20;;;;;;;6.79;44.32;100357.02;107839;1256;62455;-64
2023/01/28 15:40:26;;;;;;;35.40;15.70;;;;;;;6.66;44.87;100357.77;107908;1257;60049;-64
2023/01/28 15:42:53;;;;;;;22.10;11.40;;;;;;;6.71;44.76;100358.02;107823;1257;74147;-65
2023/01/28 15:45:24;;;;;;;28.90;12.70;;;;;;;6.78;45.09;100359.13;108042;1257;71348;-64
2023/01/28 15:47:52;;;;;;;28.40;12.30;;;;;;;7.08;44.51;100360.51;107924;1256;72272;-65
2023/01/28 15:50:23;;;;;;;20.10;9.90;;;;;;;6.96;44.31;100361.77;108041;1254;62247;-65
2023/01/28 15:52:49;;;;;;;23.70;11.40;;;;;;;6.96;44.63;100362.11;108064;1254;61514;-65
2023/01/28 15:55:26;;;;;;;27.10;11.40;;;;;;;6.55;44.73;100365.62;108085;1254;73212;-65
2023/01/28 15:57:52;;;;;;;30.00;12.80;;;;;;;6.21;45.42;100368.59;108055;1257;69943;-65
2023/01/28 16:00:20;;;;;;;32.10;13.50;;;;;;;6.13;45.54;100368.73;107808;1257;71987;-65
2023/01/28 16:02:49;;;;;;;37.50;16.20;;;;;;;6.19;45.45;100369.70;108041;1257;62227;-65
2023/01/28 16:05:30;;;;;;;36.10;15.70;;;;;;;6.17;45.65;100373.05;107896;1255;61036;-65
2023/01/28 16:07:57;;;;;;;44.80;18.70;;;;;;;6.01;46.12;100376.92;108093;1255;74596;-64
2023/01/28 16:10:26;;;;;;;30.40;13.80;;;;;;;5.72;46.90;100382.00;107851;1256;71190;-64
2023/01/28 16:13:06;;;;;;;24.70;12.10;;;;;;;5.80;47.14;100382.42;108039;1254;73707;-64
2023/01/28 16:15:32;;;;;;;29.40;12.90;;;;;;;5.79;46.86;100381.20;108061;1254;62275;-64
2023/01/28 16:17:59;;;;;;;25.80;10.20;;;;;;;5.82;46.79;100382.04;108035;1254;59592;-65
2023/01/28 16:20:27;;;;;;;33.20;12.40;;;;;;;5.88;46.68;100374.98;108013;1254;73075;-65
2023/01/28 16:22:57;;;;;;;37.50;14.50;;;;;;;5.70;46.73;100375.92;108023;1254;71570;-65
2023/01/28 16:25:29;;;;;;;28.60;12.90;;;;;;;5.60;47.00;100376.05;108043;1254;74119;-64
2023/01/28 16:27:56;;;;;;;33.40;13.80;;;;;;;4.84;48.30;100371.85;108014;1254;60446;-64
2023/01/28 16:30:23;;;;;;;21.90;10.40;;;;;;;4.80;48.66;100377.80;108112;1254;60887;-64
2023/01/28 16:32:50;;;;;;;22.60;10.90;;;;;;;5.10;48.28;100376.29;107881;1255;74571;-66
2023/01/28 16:35:19;;;;;;;23.60;11.20;;;;;;;5.30;47.68;100378.34;107987;1257;71650;-63
2023/01/28 16:37:47;;;;;;;23.10;10.90;;;;;;;5.32;47.89;100379.00;107912;1256;71474;-65
2023/01/28 16:40:15;;;;;;;27.10;12.30;;;;;;;5.04;48.24;100377.56;108008;1255;60773;-64
2023/01/28 16:42:43;;;;;;;26.20;11.90;;;;;;;4.98;48.42;100380.60;108037;1255;60578;-63
2023/01/28 16:45:14;;;;;;;22.60;10.60;;;;;;;4.74;48.98;100379.42;107949;1255;75160;-65
2023/01/28 16:47:42;;;;;;;22.80;10.90;;;;;;;4.05;50.57;100377.02;108012;1257;69798;-62
2023/01/28 16:50:13;;;;;;;24.20;11.40;;;;;;;4.01;51.09;100381.72;107941;1256;72922;-64
2023/01/28 16:52:41;;;;;;;36.60;17.40;;;;;;;3.93;51.60;100385.77;107929;1257;62985;-63
2023/01/28 16:55:15;;;;;;;97.00;43.20;;;;;;;4.08;51.44;100383.42;107984;1256;61154;-65
2023/01/28 16:57:43;;;;;;;48.50;21.50;;;;;;;4.31;51.09;100376.31;108039;1254;74821;-64
2023/01/28 17:00:24;;;;;;;53.40;25.00;;;;;;;4.61;50.45;100377.09;108071;1259;69325;-64
2023/01/28 17:02:51;;;;;;;72.20;32.90;;;;;;;4.85;49.67;100384.36;108030;1256;73710;-65
2023/01/28 17:05:19;;;;;;;48.50;20.60;;;;;;;5.00;49.39;100385.77;108014;1255;62939;-64
2023/01/28 17:07:49;;;;;;;79.70;34.80;;;;;;;5.15;49.14;100384.40;108064;1254;60249;-66
2023/01/28 17:10:16;;;;;;;36.90;16.60;;;;;;;5.43;48.52;100384.79;108033;1254;74807;-64
2023/01/28 17:12:43;;;;;;;43.60;20.10;;;;;;;5.56;48.41;100383.77;108105;1254;71393;-64
2023/01/28 17:15:10;;;;;;;30.00;14.70;;;;;;;5.23;49.16;100387.45;108142;1254;72564;-62
2023/01/28 17:17:38;;;;;;;22.80;10.70;;;;;;;4.69;50.25;100387.98;107943;1254;62160;-65
2023/01/28 17:20:05;;;;;;;26.90;11.50;;;;;;;3.97;51.59;100392.34;108038;1254;61422;-65
2023/01/28 17:22:32;;;;;;;19.70;9.60;;;;;;;3.91;51.67;100393.41;107996;1254;75126;-64